Time;durP1;ratioP1;P1;durP2;ratioP2;P2;SDS_P1;SDS_P2;PMS_P1;PMS_P2;Temp;Humidity;BMP_temperature;BMP_pressure;BME280_temperature;BME280_humidity;BME280_pressure;Samples;Min_cycle;Max_cycle;Signal;HPM_P1;HPM_P2
2021/04/27 00:01:04;;;;;;;1.67;0.80;;;20.90;34.00;;;;;;5092681;28;20073;-49
2021/04/27 00:03:29;;;;;;;1.58;0.80;;;20.90;33.90;;;;;;5093919;28;20056;-42
2021/04/27 00:05:55;;;;;;;3.40;0.90;;;20.90;34.00;;;;;;5093719;28;20689;-50
2021/04/27 00:08:21;;;;;;;1.70;1.00;;;20.90;34.00;;;;;;5094515;28;20059;-47
2021/04/27 00:10:46;;;;;;;1.95;0.93;;;20.90;34.10;;;;;;5093519;28;20026;-46
2021/04/27 00:13:12;;;;;;;2.78;0.90;;;20.90;34.10;;;;;;5094884;28;20124;-45
2021/04/27 00:15:39;;;;;;;1.45;0.90;;;20.90;34.00;;;;;;5093667;28;20111;-48
2021/04/27 00:18:04;;;;;;;3.80;1.08;;;20.90;34.00;;;;;;5094707;28;20028;-51
2021/04/27 00:20:30;;;;;;;1.35;0.75;;;20.90;34.10;;;;;;5094102;28;20032;-45
2021/04/27 00:22:57;;;;;;;1.65;1.00;;;20.90;34.00;;;;;;5093648;28;20028;-41
2021/04/27 00:25:27;;;;;;;1.60;1.05;;;20.90;34.10;;;;;;5093643;28;20024;-48
2021/04/27 00:27:54;;;;;;;1.63;1.17;;;20.90;33.90;;;;;;5093671;28;20092;-46
2021/04/27 00:30:21;;;;;;;1.63;0.73;;;20.90;34.00;;;;;;5094357;28;20028;-46
2021/04/27 00:32:47;;;;;;;2.15;1.00;;;20.80;33.90;;;;;;5093611;28;20032;-46
2021/04/27 00:35:14;;;;;;;2.15;0.80;;;20.90;34.00;;;;;;5093866;28;20153;-46
2021/04/27 00:37:39;;;;;;;1.25;0.90;;;20.90;34.10;;;;;;5093382;28;20040;-49
2021/04/27 00:40:08;;;;;;;2.35;0.90;;;20.80;33.90;;;;;;5094273;28;20056;-47
2021/04/27 00:42:37;;;;;;;1.38;1.00;;;20.90;34.00;;;;;;5094403;28;20039;-47
2021/04/27 00:45:09;;;;;;;2.47;0.80;;;20.80;33.90;;;;;;5093943;28;20024;-43
2021/04/27 00:47:35;;;;;;;1.45;0.93;;;20.90;34.00;;;;;;5093736;28;20065;-57
2021/04/27 00:50:03;;;;;;;1.70;1.35;;;20.90;34.00;;;;;;5093458;28;20035;-48
2021/04/27 00:52:29;;;;;;;1.95;0.80;;;20.90;33.90;;;;;;5090577;28;20031;-54
2021/04/27 00:54:55;;;;;;;1.25;0.90;;;20.90;34.00;;;;;;5087657;28;20020;-50
2021/04/27 00:57:21;;;;;;;1.48;0.70;;;20.90;34.00;;;;;;5092893;28;20043;-50
2021/04/27 00:59:47;;;;;;;2.33;1.10;;;20.90;33.90;;;;;;5092918;28;20032;-44
2021/04/27 01:02:13;;;;;;;2.15;1.35;;;20.80;34.00;;;;;;5093471;28;20020;-44
2021/04/27 01:04:38;;;;;;;1.42;0.98;;;20.90;34.00;;;;;;5092484;28;20119;-56
2021/04/27 01:07:04;;;;;;;2.13;0.90;;;20.80;33.90;;;;;;5093245;28;20054;-47
2021/04/27 01:09:31;;;;;;;1.60;0.75;;;20.90;34.00;;;;;;5092665;28;20516;-50
2021/04/27 01:12:10;;;;;;;1.10;0.80;;;20.90;34.00;;;;;;5092621;28;20665;-47
2021/04/27 01:14:38;;;;;;;1.77;0.95;;;20.80;33.90;;;;;;5093145;28;20084;-54
2021/04/27 01:17:16;;;;;;;2.45;1.02;;;20.90;34.10;;;;;;5092934;28;20036;-46
2021/04/27 01:20:03;;;;;;;2.08;1.10;;;20.90;34.10;;;;;;5092395;28;20107;-47
2021/04/27 01:22:35;;;;;;;0.95;0.70;;;20.80;34.00;;;;;;5093287;28;20107;-48
2021/04/27 01:25:01;;;;;;;;;;;20.80;34.00;;;;;;5092742;28;20107;-48
2021/04/27 01:27:27;;;;;;;2.03;0.88;;;20.80;34.00;;;;;;5093172;28;19907;-49
2021/04/27 01:29:54;;;;;;;0.88;0.75;;;20.80;34.00;;;;;;5092519;28;20035;-46
2021/04/27 01:32:20;;;;;;;2.00;1.23;;;20.80;33.90;;;;;;5093153;28;20024;-48
2021/04/27 01:34:47;;;;;;;1.65;0.80;;;20.80;34.00;;;;;;5091994;28;20111;-44
2021/04/27 01:37:14;;;;;;;3.40;1.08;;;20.80;34.00;;;;;;5092401;28;20097;-45
2021/04/27 01:39:40;;;;;;;1.38;0.77;;;20.80;34.00;;;;;;5092534;28;20119;-53
2021/04/27 01:42:08;;;;;;;1.70;0.90;;;20.80;34.00;;;;;;5093253;28;20077;-47
2021/04/27 01:44:38;;;;;;;1.60;0.80;;;20.80;34.00;;;;;;5092594;28;20024;-47
2021/04/27 01:47:06;;;;;;;1.98;0.75;;;20.80;33.90;;;;;;5089926;28;20040;-48
2021/04/27 01:49:32;;;;;;;1.33;0.80;;;20.80;34.00;;;;;;5089365;28;20346;-47
2021/04/27 01:51:59;;;;;;;2.63;0.80;;;20.80;34.00;;;;;;5090576;28;20020;-44
2021/04/27 01:54:27;;;;;;;3.67;0.80;;;20.80;34.00;;;;;;5092447;28;20058;-49
2021/04/27 01:56:54;;;;;;;3.60;0.73;;;20.80;34.00;;;;;;5091464;28;20039;-47
2021/04/27 01:59:20;;;;;;;1.13;0.80;;;20.80;34.00;;;;;;5092503;28;20028;-42
2021/04/27 02:01:46;;;;;;;2.60;1.10;;;20.80;34.00;;;;;;5091516;28;20380;-51
2021/04/27 02:04:19;;;;;;;2.38;0.73;;;20.80;34.00;;;;;;5092510;28;20135;-40
2021/04/27 02:06:44;;;;;;;1.60;0.93;;;20.80;34.00;;;;;;5091208;28;20024;-45
2021/04/27 02:09:11;;;;;;;1.85;1.00;;;20.80;34.00;;;;;;5092338;28;20085;-47
2021/04/27 02:11:39;;;;;;;2.00;0.88;;;20.80;34.00;;;;;;5092621;28;20028;-53
2021/04/27 02:14:10;;;;;;;1.60;0.93;;;20.80;34.00;;;;;;5092022;28;20032;-51
2021/04/27 02:16:53;;;;;;;2.97;0.90;;;20.80;34.00;;;;;;5092232;28;20036;-49
2021/04/27 02:19:27;;;;;;;1.00;0.80;;;20.80;34.00;;;;;;5091877;28;20469;-46
2021/04/27 02:21:56;;;;;;;1.67;0.82;;;20.80;34.00;;;;;;5091153;28;20359;-49
2021/04/27 02:24:23;;;;;;;3.20;0.98;;;20.80;34.00;;;;;;5090731;28;20047;-46
2021/04/27 02:26:52;;;;;;;2.20;0.90;;;20.80;34.00;;;;;;5091300;28;20032;-49
2021/04/27 02:29:18;;;;;;;1.73;1.08;;;20.80;34.10;;;;;;5088707;28;20036;-52
2021/04/27 02:31:45;;;;;;;1.35;0.70;;;20.80;34.00;;;;;;5091497;28;20028;-43
2021/04/27 02:34:11;;;;;;;1.42;0.82;;;20.80;34.00;;;;;;5090767;28;20032;-51
2021/04/27 02:36:39;;;;;;;2.17;1.10;;;20.80;34.00;;;;;;5091958;28;20028;-48
2021/04/27 02:39:07;;;;;;;0.90;0.70;;;20.80;34.10;;;;;;5091697;28;20024;-48
2021/04/27 02:41:33;;;;;;;3.75;0.70;;;20.80;34.10;;;;;;5088207;28;20081;-46
2021/04/27 02:44:00;;;;;;;1.60;0.80;;;20.80;34.10;;;;;;5089411;28;20027;-48
2021/04/27 02:46:26;;;;;;;2.22;0.90;;;20.80;34.10;;;;;;5088502;28;20370;-55
2021/04/27 02:48:51;;;;;;;1.65;0.88;;;20.80;34.10;;;;;;5090065;28;20031;-44
2021/04/27 02:51:17;;;;;;;3.35;1.30;;;20.80;34.10;;;;;;5089302;28;20521;-48
2021/04/27 02:53:43;;;;;;;1.85;0.70;;;20.80;34.10;;;;;;5070839;28;20036;-44
2021/04/27 02:56:08;;;;;;;1.95;0.88;;;20.80;34.10;;;;;;5071632;28;20041;-46
2021/04/27 02:58:34;;;;;;;3.15;0.90;;;20.80;34.10;;;;;;5071576;28;20753;-51
2021/04/27 03:00:59;;;;;;;2.92;0.90;;;20.80;34.10;;;;;;5070634;28;20017;-44
2021/04/27 03:03:25;;;;;;;1.52;0.80;;;20.80;34.10;;;;;;5071393;28;20032;-50
2021/04/27 03:05:51;;;;;;;1.13;0.70;;;20.80;34.10;;;;;;5071016;28;20024;-49
2021/04/27 03:08:17;;;;;;;1.35;0.88;;;20.80;34.10;;;;;;5070969;28;20465;-50
2021/04/27 03:10:42;;;;;;;1.10;0.70;;;20.80;34.10;;;;;;5070919;28;20021;-56
2021/04/27 03:13:08;;;;;;;0.70;0.70;;;20.80;34.20;;;;;;5071102;28;20385;-46
2021/04/27 03:15:34;;;;;;;2.13;1.00;;;20.80;34.20;;;;;;5071516;28;20465;-48
2021/04/27 03:18:00;;;;;;;1.42;0.95;;;20.80;34.20;;;;;;5070418;28;20028;-42
2021/04/27 03:20:26;;;;;;;1.75;0.90;;;20.80;34.10;;;;;;5071245;28;20027;-44
2021/04/27 03:22:51;;;;;;;1.52;0.85;;;20.80;34.20;;;;;;5069400;28;20033;-50
2021/04/27 03:25:17;;;;;;;2.97;0.90;;;20.80;34.20;;;;;;5071417;28;20054;-45
2021/04/27 03:27:43;;;;;;;1.33;0.90;;;20.80;34.20;;;;;;5070871;28;20040;-53
2021/04/27 03:30:11;;;;;;;1.77;0.77;;;20.80;34.20;;;;;;5071406;28;20060;-46
2021/04/27 03:32:37;;;;;;;2.17;0.93;;;20.80;34.20;;;;;;5074058;28;20033;-43
2021/04/27 03:35:08;;;;;;;1.60;0.70;;;20.80;34.20;;;;;;5074238;28;20035;-48
2021/04/27 03:37:34;;;;;;;2.00;0.95;;;20.80;34.10;;;;;;5091595;28;20032;-46
2021/04/27 03:40:00;;;;;;;1.58;1.02;;;20.70;34.20;;;;;;5093431;28;20817;-51
2021/04/27 03:42:25;;;;;;;1.13;0.65;;;20.80;34.30;;;;;;5095068;28;20314;-47
2021/04/27 03:44:51;;;;;;;1.35;0.80;;;20.70;34.30;;;;;;5094444;28;20032;-45
2021/04/27 03:47:17;;;;;;;2.75;1.10;;;20.70;34.30;;;;;;5087043;28;20085;-49
2021/04/27 03:49:42;;;;;;;1.88;1.00;;;20.80;34.30;;;;;;5074571;28;20103;-55
2021/04/27 03:52:08;;;;;;;1.30;0.63;;;20.80;34.30;;;;;;5074586;28;20113;-49
2021/04/27 03:54:34;;;;;;;1.65;1.05;;;20.80;34.30;;;;;;5074579;28;20031;-47
2021/04/27 03:57:02;;;;;;;2.92;1.20;;;20.70;34.30;;;;;;5073606;28;20032;-48
2021/04/27 03:59:28;;;;;;;1.30;0.90;;;20.80;34.40;;;;;;5074525;28;20032;-48
2021/04/27 04:01:53;;;;;;;1.85;1.10;;;20.80;34.30;;;;;;5073545;28;20031;-42
2021/04/27 04:04:19;;;;;;;1.63;0.88;;;20.70;34.30;;;;;;5073951;28;20102;-45
2021/04/27 04:06:45;;;;;;;3.20;1.25;;;20.80;34.30;;;;;;5073845;28;20078;-48
2021/04/27 04:09:11;;;;;;;2.22;1.00;;;20.80;34.40;;;;;;5074131;28;20386;-45
2021/04/27 04:11:37;;;;;;;1.42;0.70;;;20.80;34.30;;;;;;5074585;28;20021;-46
2021/04/27 04:14:03;;;;;;;1.55;0.80;;;20.80;34.40;;;;;;5073934;28;20024;-49
2021/04/27 04:16:29;;;;;;;2.45;1.00;;;20.80;34.40;;;;;;5073496;28;20047;-45
2021/04/27 04:18:55;;;;;;;2.15;0.90;;;20.80;34.40;;;;;;5073572;28;20028;-43
2021/04/27 04:21:23;;;;;;;1.70;0.80;;;20.80;34.40;;;;;;5074452;28;20020;-42
2021/04/27 04:23:48;;;;;;;1.67;0.90;;;20.80;34.40;;;;;;5073343;28;20021;-45
2021/04/27 04:26:14;;;;;;;1.88;0.90;;;20.80;34.50;;;;;;5074352;28;20435;-45
2021/04/27 04:28:41;;;;;;;2.88;0.95;;;20.80;34.40;;;;;;5074110;28;20036;-47
2021/04/27 04:31:06;;;;;;;1.48;1.00;;;20.80;34.50;;;;;;5082132;28;20051;-47
2021/04/27 04:33:32;;;;;;;1.77;0.70;;;20.80;34.60;;;;;;5093251;28;20036;-45
2021/04/27 04:35:58;;;;;;;1.70;0.95;;;20.80;34.50;;;;;;5093144;28;20040;-47
2021/04/27 04:38:24;;;;;;;1.80;0.82;;;20.80;34.40;;;;;;5094231;28;20028;-47
2021/04/27 04:40:50;;;;;;;1.15;0.80;;;20.80;34.60;;;;;;5093017;28;20024;-46
2021/04/27 04:43:17;;;;;;;1.60;0.80;;;20.80;34.60;;;;;;5094086;28;20074;-48
2021/04/27 04:45:43;;;;;;;1.90;0.80;;;20.70;34.50;;;;;;5093615;28;20058;-54
2021/04/27 04:48:09;;;;;;;1.63;0.90;;;20.80;34.50;;;;;;5093840;28;20041;-46
2021/04/27 04:50:35;;;;;;;2.15;1.08;;;20.80;34.70;;;;;;5093567;28;20027;-46
2021/04/27 04:53:02;;;;;;;1.60;1.02;;;20.80;34.70;;;;;;5093209;28;20054;-49
2021/04/27 04:55:28;;;;;;;2.40;1.30;;;20.80;34.60;;;;;;5093548;28;20035;-44
2021/04/27 04:57:53;;;;;;;1.63;0.80;;;20.80;34.50;;;;;;5091756;28;20030;-45
2021/04/27 05:00:21;;;;;;;2.30;0.98;;;20.80;34.60;;;;;;5092436;28;20373;-46
2021/04/27 05:02:47;;;;;;;1.98;0.98;;;20.80;34.60;;;;;;5092811;28;20076;-54
2021/04/27 05:05:14;;;;;;;3.30;1.02;;;20.80;34.60;;;;;;5093969;28;20047;-49
2021/04/27 05:07:44;;;;;;;1.73;0.77;;;20.80;34.60;;;;;;5092513;28;20038;-43
2021/04/27 05:10:12;;;;;;;1.45;0.75;;;20.80;34.70;;;;;;5093021;28;20077;-47
2021/04/27 05:12:38;;;;;;;1.38;0.80;;;20.80;34.70;;;;;;5093497;28;20032;-48
2021/04/27 05:15:05;;;;;;;2.90;1.83;;;20.80;34.70;;;;;;5092713;28;20024;-46
2021/04/27 05:17:31;;;;;;;1.98;1.25;;;20.80;34.70;;;;;;5074721;28;20032;-41
2021/04/27 05:19:58;;;;;;;2.85;1.05;;;20.80;34.70;;;;;;5072403;28;20462;-45
2021/04/27 05:22:24;;;;;;;2.15;0.88;;;20.80;34.90;;;;;;5073270;28;20020;-43
2021/04/27 05:24:51;;;;;;;3.08;1.02;;;20.80;35.30;;;;;;5078746;28;20032;-44
2021/04/27 05:27:17;;;;;;;8.68;1.50;;;20.80;35.30;;;;;;5091843;28;20564;-47
2021/04/27 05:29:43;;;;;;;5.18;1.52;;;20.80;36.20;;;;;;5092479;28;20028;-42
2021/04/27 05:32:09;;;;;;;3.38;1.10;;;20.80;36.70;;;;;;5092313;28;20028;-45
2021/04/27 05:34:35;;;;;;;8.38;1.13;;;20.80;36.90;;;;;;5093126;28;20518;-52
2021/04/27 05:37:02;;;;;;;7.25;1.17;;;20.80;37.00;;;;;;5091801;28;20028;-45
2021/04/27 05:39:27;;;;;;;12.68;1.65;;;20.80;37.50;;;;;;5091827;28;20030;-46
2021/04/27 05:41:53;;;;;;;8.90;1.35;;;20.80;37.80;;;;;;5092015;28;20107;-48
2021/04/27 05:44:19;;;;;;;11.80;2.20;;;20.90;38.00;;;;;;5092953;28;20024;-46
2021/04/27 05:46:44;;;;;;;14.02;2.05;;;20.80;38.10;;;;;;5091981;28;20035;-54
2021/04/27 05:49:10;;;;;;;7.80;2.00;;;20.80;38.50;;;;;;5092003;28;20028;-47
2021/04/27 05:51:36;;;;;;;12.45;2.65;;;20.80;38.70;;;;;;5092234;28;20032;-44
2021/04/27 05:54:02;;;;;;;8.98;1.90;;;20.90;39.00;;;;;;5082733;28;20055;-42
2021/04/27 05:56:28;;;;;;;8.23;1.73;;;20.90;39.20;;;;;;5072159;28;20044;-43
2021/04/27 05:58:53;;;;;;;8.50;1.67;;;20.90;39.20;;;;;;5070367;28;20029;-47
2021/04/27 06:01:19;;;;;;;8.23;2.45;;;20.90;39.30;;;;;;5072089;28;20052;-44
2021/04/27 06:03:45;;;;;;;15.20;2.40;;;20.80;39.20;;;;;;5072164;28;20049;-49
2021/04/27 06:06:10;;;;;;;7.10;2.40;;;20.90;39.50;;;;;;5070538;28;20033;-50
2021/04/27 06:08:36;;;;;;;7.43;2.63;;;20.20;28.90;;;;;;5072386;28;20032;-47
2021/04/27 06:11:05;;;;;;;7.70;2.15;;;17.80;28.90;;;;;;5071127;28;20117;-47
2021/04/27 06:13:31;;;;;;;4.05;2.15;;;16.80;29.90;;;;;;5072263;28;20025;-45
2021/04/27 06:15:57;;;;;;;3.78;2.00;;;16.20;30.40;;;;;;5070759;28;20154;-45
2021/04/27 06:18:23;;;;;;;5.78;2.53;;;15.90;30.70;;;;;;5071278;28;20129;-48
2021/04/27 06:20:48;;;;;;;8.35;2.42;;;15.80;31.00;;;;;;5089970;28;20560;-56
2021/04/27 06:23:14;;;;;;;5.97;2.50;;;15.90;30.80;;;;;;5091108;28;20055;-46
2021/04/27 06:25:39;;;;;;;6.93;2.70;;;15.90;30.70;;;;;;5091609;28;20043;-49
2021/04/27 06:28:05;;;;;;;7.10;2.60;;;15.70;30.80;;;;;;5091144;28;20043;-45
2021/04/27 06:30:31;;;;;;;9.07;2.60;;;15.60;31.30;;;;;;5092121;28;20024;-48
2021/04/27 06:32:57;;;;;;;4.15;2.80;;;15.60;31.20;;;;;;5091330;28;20035;-53
2021/04/27 06:35:27;;;;;;;5.50;2.28;;;15.50;31.10;;;;;;5092136;28;20107;-44
2021/04/27 06:37:54;;;;;;;9.05;2.40;;;15.70;31.50;;;;;;5074107;28;20032;-47
2021/04/27 06:40:20;;;;;;;4.88;2.45;;;17.00;30.20;;;;;;5071869;28;20033;-47
2021/04/27 06:42:46;;;;;;;3.40;1.92;;;17.90;30.00;;;;;;5071459;28;20063;-52
2021/04/27 06:45:13;;;;;;;6.75;2.20;;;18.50;30.00;;;;;;5071327;28;20064;-47
2021/04/27 06:47:39;;;;;;;4.28;2.00;;;18.90;30.20;;;;;;5083949;28;20024;-47
2021/04/27 06:50:06;;;;;;;4.90;2.00;;;19.10;30.30;;;;;;5090789;28;20081;-51
2021/04/27 06:52:32;;;;;;;5.28;2.00;;;19.20;30.40;;;;;;5091867;28;20031;-44
2021/04/27 06:54:57;;;;;;;5.93;1.98;;;19.40;30.60;;;;;;5090744;28;20113;-49
2021/04/27 06:57:23;;;;;;;3.63;1.55;;;19.50;30.80;;;;;;5091609;28;20209;-46
2021/04/27 06:59:49;;;;;;;3.83;1.50;;;19.60;30.90;;;;;;5090153;28;20024;-52
2021/04/27 07:02:14;;;;;;;3.47;1.75;;;19.60;31.00;;;;;;5084787;28;20029;-47
2021/04/27 07:04:41;;;;;;;2.95;1.80;;;19.70;31.10;;;;;;5071458;28;20097;-47
2021/04/27 07:07:08;;;;;;;5.60;1.88;;;19.70;31.20;;;;;;5072439;28;20649;-47
2021/04/27 07:09:34;;;;;;;2.30;1.40;;;19.80;31.30;;;;;;5075288;28;20024;-48
2021/04/27 07:12:00;;;;;;;5.10;1.50;;;19.80;31.40;;;;;;5073924;28;20450;-47
2021/04/27 07:14:27;;;;;;;4.28;1.60;;;19.90;31.50;;;;;;5090882;28;20084;-50
2021/04/27 07:16:52;;;;;;;3.67;1.42;;;19.90;31.60;;;;;;5068568;28;20032;-45
2021/04/27 07:19:18;;;;;;;3.08;1.35;;;20.00;31.70;;;;;;5093989;28;20024;-48
2021/04/27 07:21:44;;;;;;;2.55;1.02;;;20.00;31.70;;;;;;5074980;28;20485;-44
2021/04/27 07:24:11;;;;;;;2.42;1.55;;;20.10;31.90;;;;;;5073392;28;20055;-46
2021/04/27 07:26:40;;;;;;;7.18;1.58;;;20.10;31.90;;;;;;5074750;28;20032;-45
2021/04/27 07:29:06;;;;;;;2.85;1.40;;;20.10;32.00;;;;;;5074444;28;20477;-50
2021/04/27 07:31:32;;;;;;;1.90;1.20;;;20.20;32.10;;;;;;5075198;28;20107;-46
2021/04/27 07:33:58;;;;;;;2.80;1.15;;;20.20;32.10;;;;;;5074524;28;20095;-46
2021/04/27 07:36:23;;;;;;;7.53;1.17;;;20.20;32.20;;;;;;5074932;28;20146;-45
2021/04/27 07:38:49;;;;;;;2.63;1.42;;;20.20;32.20;;;;;;5074079;28;20024;-53
2021/04/27 07:41:15;;;;;;;3.53;1.30;;;20.30;32.20;;;;;;5074424;28;20029;-45
2021/04/27 07:43:41;;;;;;;2.10;1.00;;;20.30;32.20;;;;;;5074718;28;20442;-46
2021/04/27 07:46:07;;;;;;;4.25;1.42;;;20.30;32.30;;;;;;5074188;28;20029;-45
2021/04/27 07:48:33;;;;;;;2.15;1.20;;;20.30;32.40;;;;;;5094449;28;20424;-46
2021/04/27 07:50:59;;;;;;;2.97;1.13;;;20.30;32.30;;;;;;5094439;28;20377;-46
2021/04/27 07:53:25;;;;;;;2.40;1.35;;;20.40;32.30;;;;;;5095007;28;20028;-45
2021/04/27 07:55:51;;;;;;;6.07;1.30;;;20.40;32.40;;;;;;5093004;28;20081;-50
2021/04/27 07:58:17;;;;;;;2.15;1.10;;;20.40;32.50;;;;;;5091324;28;20033;-46
2021/04/27 08:00:44;;;;;;;2.42;1.50;;;20.50;32.50;;;;;;5073328;28;20043;-44
2021/04/27 08:03:09;;;;;;;2.70;1.40;;;20.50;32.50;;;;;;5073762;28;20081;-50
2021/04/27 08:05:35;;;;;;;3.58;0.90;;;20.50;32.50;;;;;;5073031;28;20139;-45
2021/04/27 08:08:01;;;;;;;2.58;1.02;;;20.50;32.60;;;;;;5085349;28;20071;-47
2021/04/27 08:10:27;;;;;;;1.73;1.23;;;20.50;32.60;;;;;;5093006;28;20062;-45
2021/04/27 08:12:54;;;;;;;3.47;1.08;;;20.50;32.60;;;;;;5092861;28;20020;-50
2021/04/27 08:15:23;;;;;;;1.55;1.00;;;20.60;32.70;;;;;;5094735;28;20377;-45
2021/04/27 08:17:51;;;;;;;2.20;1.10;;;20.60;32.70;;;;;;5093223;28;20040;-53
2021/04/27 08:20:17;;;;;;;1.52;0.90;;;20.60;32.70;;;;;;5093036;28;20047;-47
2021/04/27 08:22:44;;;;;;;1.35;1.00;;;20.60;32.80;;;;;;5094440;28;20028;-44
2021/04/27 08:25:13;;;;;;;3.25;1.23;;;20.60;32.80;;;;;;5093798;28;20043;-47
2021/04/27 08:27:39;;;;;;;1.80;1.40;;;20.70;32.90;;;;;;5094250;28;20039;-45
2021/04/27 08:30:05;;;;;;;1.75;0.90;;;20.70;32.90;;;;;;5093270;28;20456;-48
2021/04/27 08:32:31;;;;;;;2.88;1.80;;;20.70;33.00;;;;;;5094379;28;20040;-45
2021/04/27 08:34:57;;;;;;;1.17;0.90;;;20.70;33.00;;;;;;5093337;28;20032;-44
2021/04/27 08:37:23;;;;;;;2.85;1.10;;;20.70;33.00;;;;;;5094033;28;20381;-45
2021/04/27 08:39:48;;;;;;;1.35;1.10;;;20.70;33.00;;;;;;5093862;28;20744;-46
2021/04/27 08:42:16;;;;;;;3.92;1.27;;;20.80;33.10;;;;;;5093385;28;20036;-46
2021/04/27 08:44:41;;;;;;;1.58;1.20;;;20.80;33.10;;;;;;5093638;28;20031;-44
2021/04/27 08:47:09;;;;;;;3.25;1.20;;;20.80;33.10;;;;;;5091681;28;20073;-46
2021/04/27 08:49:35;;;;;;;2.65;1.50;;;20.80;33.10;;;;;;5093821;28;20067;-45
2021/04/27 08:52:01;;;;;;;2.25;1.17;;;20.80;33.10;;;;;;5092969;28;20032;-46
2021/04/27 08:54:27;;;;;;;1.98;1.27;;;20.80;33.10;;;;;;5093926;28;20024;-46
2021/04/27 08:56:52;;;;;;;2.92;1.33;;;20.80;33.20;;;;;;5093074;28;20036;-54
2021/04/27 08:59:18;;;;;;;2.22;1.10;;;20.80;33.20;;;;;;5093385;28;20063;-45
2021/04/27 09:01:46;;;;;;;2.60;1.30;;;20.80;33.20;;;;;;5078016;28;20577;-46
2021/04/27 09:04:12;;;;;;;2.00;1.17;;;20.80;33.20;;;;;;5070735;28;20048;-45
2021/04/27 09:06:38;;;;;;;2.47;1.08;;;20.80;33.20;;;;;;5073030;28;20028;-47
2021/04/27 09:09:04;;;;;;;3.20;1.10;;;20.80;33.30;;;;;;5072908;28;20458;-46
2021/04/27 09:11:40;;;;;;;3.83;1.10;;;20.80;33.30;;;;;;5073104;28;20025;-51
2021/04/27 09:14:16;;;;;;;2.13;1.13;;;20.80;33.40;;;;;;5071178;28;20078;-47
2021/04/27 09:16:47;;;;;;;2.80;1.10;;;20.80;33.40;;;;;;5073093;28;20028;-48
2021/04/27 09:19:30;;;;;;;1.80;0.98;;;20.90;34.10;;;;;;5092225;28;20107;-46
2021/04/27 09:22:11;;;;;;;2.42;1.52;;;20.90;33.50;;;;;;5092800;28;20073;-45
2021/04/27 09:24:56;;;;;;;2.75;1.38;;;20.90;33.60;;;;;;5093355;28;20028;-47
2021/04/27 09:27:24;;;;;;;1.73;1.27;;;20.90;33.50;;;;;;5093060;28;20036;-44
2021/04/27 09:29:50;;;;;;;1.92;1.20;;;20.90;33.50;;;;;;5092244;28;20035;-46
2021/04/27 09:32:34;;;;;;;2.08;1.30;;;21.00;33.70;;;;;;5091095;28;20028;-46
2021/04/27 09:35:28;;;;;;;1.65;0.88;;;21.00;33.70;;;;;;5092250;28;20081;-46
2021/04/27 09:38:12;;;;;;;2.13;1.20;;;20.90;33.60;;;;;;5092918;28;20039;-52
2021/04/27 09:40:53;;;;;;;3.55;1.02;;;21.00;33.80;;;;;;5093163;28;20036;-45
2021/04/27 09:43:24;;;;;;;1.10;0.80;;;21.00;33.70;;;;;;5092749;28;20069;-45
2021/04/27 09:45:51;;;;;;;2.13;0.90;;;21.00;33.80;;;;;;5092685;28;20029;-45
2021/04/27 09:48:32;;;;;;;5.03;1.38;;;21.00;33.80;;;;;;5092029;28;20099;-46
2021/04/27 09:51:13;;;;;;;2.88;0.90;;;21.00;33.70;;;;;;5091979;28;20031;-46
2021/04/27 09:53:56;;;;;;;1.70;0.98;;;21.00;33.70;;;;;;5091345;28;20423;-45
2021/04/27 09:56:41;;;;;;;2.72;1.25;;;21.00;33.80;;;;;;5087466;28;20097;-47
2021/04/27 09:59:09;;;;;;;2.22;1.00;;;21.00;33.80;;;;;;5091314;28;20055;-43
2021/04/27 10:01:36;;;;;;;4.03;1.00;;;21.00;33.90;;;;;;5092306;28;20109;-46
2021/04/27 10:04:02;;;;;;;3.63;2.05;;;21.00;33.90;;;;;;5091274;28;20122;-47
2021/04/27 10:06:29;;;;;;;7.50;1.75;;;21.00;33.80;;;;;;5092619;28;20025;-51
2021/04/27 10:08:56;;;;;;;8.48;2.35;;;21.00;33.80;;;;;;5090788;28;20071;-53
2021/04/27 10:11:27;;;;;;;8.70;2.33;;;21.00;33.80;;;;;;5092287;28;20031;-47
2021/04/27 10:13:55;;;;;;;7.15;2.55;;;21.00;34.00;;;;;;5092396;28;20028;-54
2021/04/27 10:16:22;;;;;;;8.57;1.90;;;21.10;34.40;;;;;;5071031;28;20036;-47
2021/04/27 10:18:49;;;;;;;4.93;1.92;;;21.10;34.60;;;;;;5072970;28;20033;-50
2021/04/27 10:21:15;;;;;;;4.47;1.70;;;21.00;34.70;;;;;;5071449;28;20193;-45
2021/04/27 10:23:47;;;;;;;7.63;2.10;;;21.00;34.70;;;;;;5071543;28;20488;-47
2021/04/27 10:26:13;;;;;;;5.95;2.15;;;21.00;34.70;;;;;;5070858;28;20037;-46
2021/04/27 10:29:04;;;;;;;5.55;1.70;;;21.10;34.80;;;;;;5071938;28;20021;-45
2021/04/27 10:31:33;;;;;;;4.60;2.10;;;21.10;34.70;;;;;;5071891;28;20028;-46
2021/04/27 10:34:07;;;;;;;5.32;1.30;;;21.10;34.80;;;;;;5070876;28;20483;-50
2021/04/27 10:36:37;;;;;;;5.22;1.65;;;21.10;34.80;;;;;;5071944;28;20044;-48
2021/04/27 10:39:09;;;;;;;3.30;1.50;;;21.10;34.80;;;;;;5070917;28;20174;-44
2021/04/27 10:41:57;;;;;;;2.97;1.40;;;21.10;34.80;;;;;;5071691;28;20024;-45
2021/04/27 10:44:24;;;;;;;3.25;1.40;;;21.10;34.80;;;;;;5071578;28;20032;-45
2021/04/27 10:46:53;;;;;;;4.97;1.48;;;21.10;34.90;;;;;;5076853;28;20111;-45
2021/04/27 10:49:33;;;;;;;3.28;1.90;;;21.10;34.80;;;;;;5084720;28;20535;-47
2021/04/27 10:52:02;;;;;;;4.57;1.50;;;21.10;34.80;;;;;;5090266;28;20062;-47
2021/04/27 10:54:27;;;;;;;4.07;1.50;;;21.10;34.70;;;;;;5091319;28;20378;-46
2021/04/27 10:57:00;;;;;;;3.83;1.20;;;21.10;34.80;;;;;;5091927;28;20047;-47
2021/04/27 10:59:50;;;;;;;3.83;1.50;;;21.10;34.80;;;;;;5092035;28;20047;-45
2021/04/27 11:02:24;;;;;;;4.43;1.40;;;21.10;34.70;;;;;;5090998;28;20048;-47
2021/04/27 11:04:56;;;;;;;4.97;1.92;;;21.10;34.70;;;;;;5091369;28;20094;-47
2021/04/27 11:07:22;;;;;;;5.38;2.10;;;21.10;34.70;;;;;;5090344;28;20039;-45
2021/04/27 11:10:00;;;;;;;4.38;1.60;;;21.10;34.70;;;;;;5091987;28;20016;-45
2021/04/27 11:12:32;;;;;;;3.70;1.90;;;21.10;34.70;;;;;;5091725;28;20028;-49
2021/04/27 11:15:07;;;;;;;4.50;1.23;;;21.10;34.90;;;;;;5091141;28;20100;-52
2021/04/27 11:17:36;;;;;;;2.72;1.20;;;21.10;34.70;;;;;;5091570;28;20032;-49
2021/04/27 11:20:05;;;;;;;4.40;1.75;;;21.10;34.70;;;;;;5068464;28;20025;-45
2021/04/27 11:22:33;;;;;;;4.07;1.60;;;21.10;34.70;;;;;;5072057;28;20052;-46
2021/04/27 11:25:07;;;;;;;3.38;1.73;;;21.10;34.60;;;;;;5071121;28;20420;-53
2021/04/27 11:27:38;;;;;;;5.05;1.92;;;21.10;34.70;;;;;;5071482;28;20043;-45
2021/04/27 11:30:15;;;;;;;2.67;1.40;;;21.10;34.60;;;;;;5070589;28;20024;-46
2021/04/27 11:32:47;;;;;;;2.53;1.52;;;21.10;34.60;;;;;;5071299;28;20033;-46
2021/04/27 11:35:20;;;;;;;3.10;1.55;;;21.10;34.70;;;;;;5070454;28;20024;-45
2021/04/27 11:37:52;;;;;;;2.08;1.40;;;21.10;34.60;;;;;;5071339;28;20388;-46
2021/04/27 11:40:33;;;;;;;3.35;1.30;;;21.10;34.70;;;;;;5070389;28;20050;-51
2021/04/27 11:43:06;;;;;;;3.55;1.30;;;21.10;34.70;;;;;;5070727;28;20033;-51
2021/04/27 11:45:42;;;;;;;6.75;2.50;;;21.10;34.70;;;;;;5089229;28;20444;-42
2021/04/27 11:48:14;;;;;;;4.70;1.60;;;21.10;34.70;;;;;;5089549;28;20107;-45
2021/04/27 11:50:40;;;;;;;2.50;1.30;;;21.20;34.70;;;;;;5090871;28;20032;-45
2021/04/27 11:53:07;;;;;;;2.28;1.30;;;21.20;34.70;;;;;;5092427;28;20028;-43
2021/04/27 11:55:45;;;;;;;3.15;1.20;;;21.20;34.70;;;;;;5094773;28;20382;-53
2021/04/27 11:58:12;;;;;;;4.63;1.38;;;21.20;34.70;;;;;;5094273;28;20042;-45
2021/04/27 12:00:57;;;;;;;2.95;1.45;;;21.20;34.80;;;;;;5076644;28;20115;-47
2021/04/27 12:03:37;;;;;;;5.07;1.45;;;21.20;34.70;;;;;;5073860;28;20027;-45
2021/04/27 12:06:05;;;;;;;3.58;1.30;;;21.20;34.90;;;;;;5073564;28;20358;-46
2021/04/27 12:08:33;;;;;;;2.65;1.75;;;21.20;34.80;;;;;;5081417;28;20373;-45
2021/04/27 12:11:32;;;;;;;4.25;1.13;;;21.20;35.10;;;;;;5087242;28;20436;-55
2021/04/27 12:14:07;;;;;;;2.15;1.20;;;21.20;35.40;;;;;;5094607;28;20039;-45
2021/04/27 12:16:38;;;;;;;3.90;1.83;;;21.20;35.40;;;;;;5094442;28;20071;-45
2021/04/27 12:19:13;;;;;;;2.20;1.30;;;21.20;35.40;;;;;;5093392;28;20028;-50
2021/04/27 12:21:48;;;;;;;2.35;1.30;;;21.20;35.40;;;;;;5094806;28;20036;-45
2021/04/27 12:24:16;;;;;;;3.15;1.52;;;21.20;35.40;;;;;;5093750;28;20024;-45
2021/04/27 12:26:52;;;;;;;1.77;1.17;;;21.20;35.40;;;;;;5094029;28;20023;-49
2021/04/27 12:29:25;;;;;;;2.50;1.10;;;21.20;35.50;;;;;;5093868;28;20043;-45
2021/04/27 12:31:51;;;;;;;2.10;1.38;;;21.20;35.40;;;;;;5094462;28;20051;-46
2021/04/27 12:34:17;;;;;;;2.17;1.17;;;21.20;35.40;;;;;;5087165;28;20412;-48
2021/04/27 12:36:51;;;;;;;0.98;0.70;;;21.20;35.50;;;;;;5080268;28;20453;-47
2021/04/27 12:39:23;;;;;;;2.22;1.20;;;21.20;35.50;;;;;;5089511;28;20036;-44
2021/04/27 12:41:51;;;;;;;2.58;1.00;;;21.30;35.70;;;;;;5093007;28;20028;-45
2021/04/27 12:44:32;;;;;;;3.10;1.38;;;21.30;35.60;;;;;;5092816;28;20028;-45
2021/04/27 12:47:13;;;;;;;2.83;1.30;;;21.30;35.60;;;;;;5093425;28;20077;-43
2021/04/27 12:49:40;;;;;;;6.13;1.10;;;21.30;35.80;;;;;;5093370;28;20446;-44
2021/04/27 12:52:13;;;;;;;3.83;1.20;;;21.30;35.70;;;;;;5092072;28;20024;-48
2021/04/27 12:54:39;;;;;;;2.33;1.15;;;21.30;35.70;;;;;;5093200;28;20080;-44